Time;durP1;ratioP1;P1;durP2;ratioP2;P2;SDS_P1;SDS_P2;PMS_P1;PMS_P2;Temp;Humidity;BMP_temperature;BMP_pressure;BME280_temperature;BME280_humidity;BME280_pressure;Samples;Min_cycle;Max_cycle;Signal;HPM_P1;HPM_P2
2022/07/22 00:01:30;;;;;;;7.07;5.07;;;;;;;25.99;57.85;100614.63;5091015;28;20175;-64
2022/07/22 00:03:56;;;;;;;8.80;5.57;;;;;;;25.98;57.72;100615.84;5092637;28;20528;-64
2022/07/22 00:06:22;;;;;;;8.23;5.70;;;;;;;25.98;57.89;100618.72;5091318;28;20198;-64
2022/07/22 00:08:47;;;;;;;8.57;5.30;;;;;;;25.98;58.27;100615.84;5091820;28;20528;-64
2022/07/22 00:11:13;;;;;;;6.97;4.83;;;;;;;25.99;57.63;100615.41;5091356;28;20236;-64
2022/07/22 00:13:38;;;;;;;6.80;4.70;;;;;;;26.00;57.79;100617.06;5091313;28;20174;-64
2022/07/22 00:16:04;;;;;;;7.13;4.83;;;;;;;26.00;58.02;100617.06;5090988;28;20181;-64
2022/07/22 00:18:29;;;;;;;9.40;5.27;;;;;;;26.02;57.73;100619.53;5090733;28;20198;-64
2022/07/22 00:20:55;;;;;;;8.20;5.40;;;;;;;26.00;57.65;100602.59;5090893;28;20179;-64
2022/07/22 00:23:20;;;;;;;6.47;4.80;;;;;;;25.99;57.86;100600.94;5082698;28;20232;-64
2022/07/22 00:25:46;;;;;;;10.70;5.50;;;;;;;25.99;57.64;100603.03;5092375;28;20181;-64
2022/07/22 00:28:11;;;;;;;7.47;4.83;;;;;;;25.99;58.18;100608.81;5092290;28;20170;-64
2022/07/22 00:30:37;;;;;;;6.43;4.57;;;;;;;25.99;58.03;100609.63;5092082;28;20178;-64
2022/07/22 00:33:03;;;;;;;7.90;4.93;;;;;;;25.97;57.70;100606.34;5090738;28;20202;-64
2022/07/22 00:35:28;;;;;;;6.07;4.63;;;;;;;25.96;57.45;100606.78;5090972;28;20178;-64
2022/07/22 00:37:53;;;;;;;6.60;4.83;;;;;;;25.94;57.30;100606.38;5090770;28;20520;-64
2022/07/22 00:40:19;;;;;;;9.70;5.33;;;;;;;25.93;57.47;100601.81;5089802;28;20637;-64
2022/07/22 00:42:44;;;;;;;8.10;4.77;;;;;;;25.91;57.36;100602.28;5089193;28;20642;-64
2022/07/22 00:45:11;;;;;;;7.50;5.23;;;;;;;25.90;57.13;100593.97;5088970;28;20177;-64
2022/07/22 00:47:36;;;;;;;13.90;5.40;;;;;;;25.91;57.06;100595.63;5089268;28;20641;-64
2022/07/22 00:50:02;;;;;;;10.00;4.80;;;;;;;25.91;57.28;100596.47;5088760;28;20648;-64
2022/07/22 00:52:27;;;;;;;13.20;5.10;;;;;;;25.89;57.62;100593.13;5089388;28;20752;-64
2022/07/22 00:54:53;;;;;;;7.10;4.67;;;;;;;25.90;57.15;100589.00;5091099;28;20179;-64
2022/07/22 00:57:18;;;;;;;8.27;4.90;;;;;;;25.88;57.61;100591.50;5090440;28;20179;-64
2022/07/22 00:59:44;;;;;;;10.73;5.73;;;;;;;25.87;57.54;100591.91;5091524;28;20540;-64
2022/07/22 01:02:09;;;;;;;11.80;5.93;;;;;;;25.87;57.51;100589.03;5091828;28;20174;-64
2022/07/22 01:04:35;;;;;;;6.77;4.90;;;;;;;25.85;57.66;100591.53;5090301;28;20174;-64
2022/07/22 01:07:00;;;;;;;7.37;5.50;;;;;;;25.83;57.58;100588.22;5073524;28;20186;-64
2022/07/22 01:09:26;;;;;;;6.07;5.17;;;;;;;25.83;57.27;100582.44;5091184;28;20228;-64
2022/07/22 01:11:51;;;;;;;8.33;5.43;;;;;;;25.83;57.39;100588.22;5091484;28;20205;-64
2022/07/22 01:14:17;;;;;;;6.87;5.33;;;;;;;25.83;57.14;100585.31;5090382;28;20187;-64
2022/07/22 01:16:42;;;;;;;10.10;5.73;;;;;;;25.83;57.39;100589.06;5090815;28;20177;-64
2022/07/22 01:19:07;;;;;;;7.23;5.40;;;;;;;25.82;57.31;100590.31;5091423;28;20182;-64
2022/07/22 01:21:33;;;;;;;10.33;6.40;;;;;;;25.82;57.10;100590.31;5091353;28;20166;-64
2022/07/22 01:23:58;;;;;;;7.70;5.37;;;;;;;25.83;56.98;100585.31;5091221;28;20179;-64
2022/07/22 01:26:24;;;;;;;8.20;5.77;;;;;;;25.81;57.60;100582.88;5091214;28;20505;-64
2022/07/22 01:28:50;;;;;;;7.10;5.77;;;;;;;25.78;57.29;100577.94;5091061;28;20170;-64
2022/07/22 01:31:15;;;;;;;8.67;6.30;;;;;;;25.78;57.22;100574.19;5091048;28;20255;-64
2022/07/22 01:33:40;;;;;;;8.53;6.13;;;;;;;25.79;57.33;100581.66;5091120;28;20193;-64
2022/07/22 01:36:06;;;;;;;10.00;6.63;;;;;;;25.77;57.34;100582.06;5091404;28;20182;-64
2022/07/22 01:38:32;;;;;;;8.30;6.20;;;;;;;25.75;57.21;100583.75;5090601;28;20680;-64
2022/07/22 01:40:57;;;;;;;9.90;7.10;;;;;;;25.74;57.15;100580.03;5091174;28;20166;-64
2022/07/22 01:43:23;;;;;;;11.03;6.63;;;;;;;25.75;57.44;100584.56;5090844;28;20170;-64
2022/07/22 01:45:49;;;;;;;11.23;6.73;;;;;;;25.77;57.30;100581.25;5089193;28;20251;-64
2022/07/22 01:48:15;;;;;;;8.90;6.83;;;;;;;25.77;57.30;100587.03;5090908;28;20209;-64
2022/07/22 01:50:41;;;;;;;8.70;7.07;;;;;;;25.79;57.09;100584.56;5090943;28;20420;-64
2022/07/22 01:53:06;;;;;;;9.23;7.00;;;;;;;25.78;57.60;100585.78;5075507;28;20213;-64
2022/07/22 01:55:32;;;;;;;13.37;7.60;;;;;;;25.77;57.42;100584.97;5086721;28;20623;-64
2022/07/22 01:57:57;;;;;;;10.17;7.00;;;;;;;25.76;57.28;100589.13;5090852;28;20170;-64
2022/07/22 02:00:23;;;;;;;9.97;7.63;;;;;;;25.77;57.17;100590.75;5091082;28;20209;-64
2022/07/22 02:02:48;;;;;;;9.70;7.60;;;;;;;25.75;57.23;100583.75;5095066;28;20535;-64
2022/07/22 02:05:13;;;;;;;12.50;7.30;;;;;;;25.75;57.45;100583.75;5095120;28;20166;-64
2022/07/22 02:07:39;;;;;;;10.63;8.13;;;;;;;25.75;58.00;100586.63;5093592;28;20190;-64
2022/07/22 02:10:05;;;;;;;9.60;7.70;;;;;;;25.74;57.58;100593.69;5094703;28;20233;-64
2022/07/22 02:12:30;;;;;;;9.63;7.53;;;;;;;25.70;57.76;100581.31;5094890;28;20778;-64
2022/07/22 02:14:56;;;;;;;14.30;7.93;;;;;;;25.71;57.39;100580.88;5094707;28;20416;-64
2022/07/22 02:17:24;;;;;;;12.27;8.03;;;;;;;25.72;57.72;100576.75;5094863;28;20177;-64
2022/07/22 02:19:50;;;;;;;10.97;8.60;;;;;;;25.71;57.83;100583.78;5094906;28;20260;-64
2022/07/22 02:22:15;;;;;;;12.57;7.80;;;;;;;25.68;57.44;100575.94;5094024;28;20412;-64
2022/07/22 02:24:41;;;;;;;11.40;7.87;;;;;;;25.67;57.57;100580.06;5092593;28;20217;-64
2022/07/22 02:27:06;;;;;;;10.30;7.57;;;;;;;25.60;57.59;100576.41;5091996;28;20178;-64
2022/07/22 02:29:32;;;;;;;10.33;7.47;;;;;;;25.64;57.68;100571.44;5092392;28;20577;-64
2022/07/22 02:31:58;;;;;;;11.37;7.93;;;;;;;25.66;57.87;100575.53;5092921;28;20255;-64
2022/07/22 02:34:23;;;;;;;9.73;7.60;;;;;;;25.66;57.69;100566.03;5092459;28;20424;-64
2022/07/22 02:36:49;;;;;;;11.07;7.43;;;;;;;25.62;57.48;100574.75;5092526;28;20166;-64
2022/07/22 02:39:14;;;;;;;11.83;7.73;;;;;;;25.66;57.55;100572.66;5094360;28;20200;-64
2022/07/22 02:41:40;;;;;;;12.00;8.10;;;;;;;25.65;57.30;100565.19;5094510;28;20190;-64
2022/07/22 02:44:05;;;;;;;15.30;8.80;;;;;;;25.63;58.17;100567.72;5092739;28;20170;-64
2022/07/22 02:46:30;;;;;;;9.80;8.33;;;;;;;25.64;57.51;100569.34;5094307;28;20182;-64
2022/07/22 02:48:56;;;;;;;10.90;8.07;;;;;;;25.63;57.94;100572.66;5093657;28;20208;-64
2022/07/22 02:51:21;;;;;;;12.20;7.57;;;;;;;25.63;57.82;100567.72;5093096;28;20669;-64
2022/07/22 02:53:47;;;;;;;12.10;7.77;;;;;;;25.64;57.94;100566.44;5073811;28;20559;-64
2022/07/22 02:56:12;;;;;;;10.87;8.33;;;;;;;25.66;57.62;100574.72;5073868;28;20589;-64
2022/07/22 02:58:39;;;;;;;10.70;8.40;;;;;;;25.68;57.29;100578.00;5073558;28;20277;-64
2022/07/22 03:01:04;;;;;;;12.10;7.93;;;;;;;25.67;57.66;100580.06;5073654;28;20182;-64
2022/07/22 03:03:29;;;;;;;10.23;8.10;;;;;;;25.67;57.78;100587.91;5073702;28;20770;-64
2022/07/22 03:05:55;;;;;;;10.60;7.70;;;;;;;25.64;57.56;100580.91;5073484;28;20197;-64
2022/07/22 03:08:20;;;;;;;15.23;8.63;;;;;;;25.65;57.41;100582.56;5073587;28;20224;-64
2022/07/22 03:10:46;;;;;;;14.53;8.13;;;;;;;25.64;57.98;100580.91;5073476;28;20205;-64
2022/07/22 03:13:11;;;;;;;10.57;8.23;;;;;;;25.64;58.00;100578.03;5072783;28;20198;-64
2022/07/22 03:15:36;;;;;;;13.83;8.20;;;;;;;25.64;57.78;100578.03;5073646;28;20182;-64
2022/07/22 03:18:02;;;;;;;10.83;8.97;;;;;;;25.66;57.46;100580.50;5073517;28;20650;-64
2022/07/22 03:20:28;;;;;;;10.50;8.50;;;;;;;25.62;58.07;100571.84;5073354;28;20967;-64
2022/07/22 03:22:53;;;;;;;12.33;7.97;;;;;;;25.62;57.82;100571.84;5074170;28;20682;-64
2022/07/22 03:25:19;;;;;;;12.60;8.27;;;;;;;25.61;57.53;100576.00;5093509;28;20182;-64
2022/07/22 03:27:44;;;;;;;10.67;8.00;;;;;;;25.61;57.83;100567.31;5093564;28;20664;-64
2022/07/22 03:30:10;;;;;;;10.10;7.87;;;;;;;25.62;58.09;100566.06;5093298;28;20209;-64
2022/07/22 03:32:35;;;;;;;11.33;8.80;;;;;;;25.58;57.87;100568.16;5093370;28;20198;-64
2022/07/22 03:35:01;;;;;;;17.60;8.70;;;;;;;25.58;57.84;100567.34;5093383;28;20588;-64
2022/07/22 03:37:26;;;;;;;11.33;8.17;;;;;;;25.59;57.75;100561.13;5092595;28;20175;-64
2022/07/22 03:39:52;;;;;;;10.53;8.80;;;;;;;25.60;57.72;100568.56;5091838;28;20170;-64
2022/07/22 03:42:17;;;;;;;13.93;8.10;;;;;;;25.60;57.81;100562.78;5091636;28;20171;-64
2022/07/22 03:44:42;;;;;;;10.03;8.00;;;;;;;25.60;57.90;100561.94;5092134;28;20197;-64
2022/07/22 03:47:08;;;;;;;9.20;7.70;;;;;;;25.58;58.04;100556.59;5091374;28;20171;-64
2022/07/22 03:49:33;;;;;;;14.37;8.87;;;;;;;25.58;58.04;100559.47;5091579;28;20201;-64
2022/07/22 03:51:59;;;;;;;10.13;8.27;;;;;;;25.60;57.71;100557.00;5085354;28;20202;-64
2022/07/22 03:54:24;;;;;;;10.43;7.80;;;;;;;25.61;57.80;100549.97;5072498;28;20584;-64
2022/07/22 03:56:49;;;;;;;9.60;8.00;;;;;;;25.62;57.68;100557.38;5071375;28;20175;-64
2022/07/22 03:59:15;;;;;;;11.17;7.50;;;;;;;25.61;57.76;100552.84;5075407;28;20186;-64
2022/07/22 04:01:41;;;;;;;10.50;8.10;;;;;;;25.61;57.58;100555.75;5090711;28;20594;-64
2022/07/22 04:04:06;;;;;;;8.97;7.93;;;;;;;25.63;57.99;100561.09;5090908;28;20577;-64
2022/07/22 04:06:32;;;;;;;10.43;8.33;;;;;;;25.61;57.79;100552.03;5090897;28;20186;-64
2022/07/22 04:08:57;;;;;;;11.83;7.47;;;;;;;25.60;57.64;100554.09;5090605;28;20229;-64
2022/07/22 04:11:23;;;;;;;9.10;7.80;;;;;;;25.61;57.88;100557.81;5090468;28;20323;-64
2022/07/22 04:13:48;;;;;;;8.50;7.33;;;;;;;25.59;57.48;100558.22;5091384;28;20182;-65
2022/07/22 04:16:14;;;;;;;10.13;7.43;;;;;;;25.59;57.65;100566.91;5092714;28;20190;-65
2022/07/22 04:18:39;;;;;;;9.53;7.30;;;;;;;25.58;57.97;100561.56;5093000;28;20182;-64
2022/07/22 04:21:04;;;;;;;9.00;7.20;;;;;;;25.58;57.60;100559.47;5092332;28;20181;-64
2022/07/22 04:23:30;;;;;;;11.90;7.53;;;;;;;25.59;57.42;100571.88;5091629;28;20183;-65
2022/07/22 04:25:55;;;;;;;11.83;7.50;;;;;;;25.58;57.75;100556.59;5092238;28;20541;-64
2022/07/22 04:28:21;;;;;;;10.97;6.60;;;;;;;25.58;57.84;100559.47;5091918;28;20178;-63
2022/07/22 04:30:47;;;;;;;11.50;7.77;;;;;;;25.57;57.44;100551.22;5091615;28;20182;-64
2022/07/22 04:33:12;;;;;;;11.17;8.40;;;;;;;25.56;57.96;100549.56;5092454;28;20197;-65
2022/07/22 04:35:37;;;;;;;8.13;7.20;;;;;;;25.56;57.37;100544.63;5092179;28;20182;-64
2022/07/22 04:38:03;;;;;;;12.40;8.10;;;;;;;25.56;57.89;100544.63;5092155;28;20162;-64
2022/07/22 04:40:28;;;;;;;10.13;7.47;;;;;;;25.53;57.89;100544.66;5092028;28;20202;-65
2022/07/22 04:42:54;;;;;;;9.20;7.20;;;;;;;25.53;57.81;100542.56;5091749;28;20202;-64
2022/07/22 04:45:19;;;;;;;12.47;8.30;;;;;;;25.55;57.74;100543.00;5091492;28;20174;-64
2022/07/22 04:47:45;;;;;;;10.60;6.77;;;;;;;25.49;57.60;100544.66;5090360;28;20221;-64
2022/07/22 04:50:10;;;;;;;7.90;6.53;;;;;;;25.54;57.46;100535.53;5090192;28;20173;-64
2022/07/22 04:52:36;;;;;;;9.97;7.10;;;;;;;25.54;56.83;100535.53;5078185;28;20221;-64
2022/07/22 04:55:01;;;;;;;7.37;6.57;;;;;;;25.56;57.71;100538.00;5069736;28;20688;-64
2022/07/22 04:57:27;;;;;;;10.77;6.77;;;;;;;25.47;57.74;100541.38;5075534;28;20511;-64
2022/07/22 04:59:52;;;;;;;10.27;7.80;;;;;;;25.46;57.47;100541.78;5089093;28;20227;-64
2022/07/22 05:02:18;;;;;;;8.10;6.90;;;;;;;25.53;57.53;100533.91;5090110;28;20538;-64
2022/07/22 05:04:43;;;;;;;9.57;7.07;;;;;;;25.54;57.51;100535.53;5091355;28;20174;-64
2022/07/22 05:07:09;;;;;;;9.10;6.77;;;;;;;25.54;57.67;100541.31;5091149;28;20186;-64
2022/07/22 05:09:34;;;;;;;10.93;7.17;;;;;;;25.40;57.71;100535.66;5091350;28;20226;-64
2022/07/22 05:12:00;;;;;;;9.50;7.80;;;;;;;25.50;57.52;100540.53;5090993;28;20201;-64
2022/07/22 05:14:25;;;;;;;11.97;7.53;;;;;;;25.50;57.43;100536.81;5091203;28;20193;-64
2022/07/22 05:16:51;;;;;;;11.73;7.90;;;;;;;25.50;57.26;100533.94;5090622;28;20629;-64
2022/07/22 05:19:16;;;;;;;8.87;6.53;;;;;;;25.50;57.39;100540.53;5090235;28;20182;-64
2022/07/22 05:21:41;;;;;;;10.47;7.40;;;;;;;25.50;57.47;100552.09;5087216;28;20171;-64
2022/07/22 05:24:07;;;;;;;8.33;7.10;;;;;;;25.35;58.21;100541.88;5071194;28;20167;-64
2022/07/22 05:26:33;;;;;;;13.43;7.57;;;;;;;25.42;58.13;100538.94;5073582;28;20171;-64
2022/07/22 05:28:58;;;;;;;10.43;8.00;;;;;;;25.38;57.99;100541.00;5091375;28;20181;-64
2022/07/22 05:31:24;;;;;;;10.60;7.40;;;;;;;25.43;57.50;100537.69;5090793;28;20297;-64
2022/07/22 05:33:49;;;;;;;12.60;8.27;;;;;;;24.90;60.22;100540.00;5085920;28;20537;-64
2022/07/22 05:36:14;;;;;;;8.90;7.20;;;;;;;25.35;58.95;100533.19;5089320;28;20178;-64
2022/07/22 05:38:40;;;;;;;16.93;10.10;;;;;;;25.75;59.29;100532.47;5089495;28;20173;-64
2022/07/22 05:41:05;;;;;;;17.03;10.20;;;;;;;25.83;60.30;100528.31;5088605;28;20170;-64
2022/07/22 05:43:31;;;;;;;17.50;11.37;;;;;;;25.67;60.88;100530.91;5089648;28;20166;-64
2022/07/22 05:45:56;;;;;;;15.43;9.80;;;;;;;25.32;59.32;100533.19;5089187;28;20171;-64
2022/07/22 05:48:22;;;;;;;20.50;8.70;;;;;;;25.20;60.63;100534.50;5089771;28;20178;-65
2022/07/22 05:50:47;;;;;;;10.43;7.67;;;;;;;24.87;60.05;100535.03;5088804;28;20163;-65
2022/07/22 05:53:13;;;;;;;12.37;8.67;;;;;;;24.69;60.40;100534.28;5072637;28;20203;-65
2022/07/22 05:55:38;;;;;;;12.43;8.30;;;;;;;24.47;61.32;100531.81;5069244;28;20175;-65
2022/07/22 05:58:04;;;;;;;12.53;8.43;;;;;;;24.74;59.65;100525.19;5069292;28;20171;-64
2022/07/22 06:00:29;;;;;;;9.97;8.70;;;;;;;24.63;60.22;100521.50;5068430;28;20245;-64
2022/07/22 06:02:54;;;;;;;13.57;8.30;;;;;;;24.62;60.41;100516.16;5069186;28;20167;-63
2022/07/22 06:05:20;;;;;;;11.77;7.90;;;;;;;24.43;60.42;100514.53;5069135;28;20175;-63
2022/07/22 06:07:45;;;;;;;11.37;9.00;;;;;;;24.42;60.63;100507.09;5074371;28;20675;-63
2022/07/22 06:10:11;;;;;;;12.73;8.47;;;;;;;24.60;60.22;100513.69;5088641;28;20723;-64
2022/07/22 06:12:36;;;;;;;12.30;8.50;;;;;;;24.77;60.63;100518.59;5087759;28;20198;-64
2022/07/22 06:15:02;;;;;;;13.83;8.40;;;;;;;24.70;60.31;100515.72;5087854;28;20185;-64
2022/07/22 06:17:27;;;;;;;10.70;7.80;;;;;;;24.47;61.12;100514.50;5086196;28;20198;-64
2022/07/22 06:19:53;;;;;;;14.93;8.03;;;;;;;24.44;61.22;100507.50;5087203;28;20207;-64
2022/07/22 06:22:18;;;;;;;10.90;8.27;;;;;;;24.31;61.30;100508.38;5086303;28;20723;-64
2022/07/22 06:24:44;;;;;;;12.33;7.73;;;;;;;24.43;60.54;100508.75;5086443;28;20166;-64
2022/07/22 06:27:10;;;;;;;9.57;7.80;;;;;;;24.49;60.72;100507.06;5088580;28;20190;-64
2022/07/22 06:29:35;;;;;;;13.27;8.20;;;;;;;24.59;60.81;100509.16;5087852;28;20247;-64
2022/07/22 06:32:01;;;;;;;14.80;9.20;;;;;;;24.73;60.91;100517.75;5087074;28;20191;-64
2022/07/22 06:34:26;;;;;;;12.83;8.47;;;;;;;24.75;60.46;100509.53;5088632;28;20214;-64
2022/07/22 06:36:52;;;;;;;15.20;8.60;;;;;;;24.80;61.05;100511.16;5089046;28;20174;-64
2022/07/22 06:39:17;;;;;;;12.80;7.80;;;;;;;24.67;61.06;100513.66;5088163;28;20251;-64
2022/07/22 06:41:43;;;;;;;12.23;8.27;;;;;;;24.39;61.19;100516.59;5088662;28;20599;-64
2022/07/22 06:44:08;;;;;;;14.37;8.40;;;;;;;24.64;61.15;100502.13;5077701;28;20179;-64
2022/07/22 06:46:34;;;;;;;10.60;7.97;;;;;;;24.74;60.22;100519.41;5068547;28;20168;-64
2022/07/22 06:48:59;;;;;;;12.27;8.10;;;;;;;24.72;60.87;100510.34;5072022;28;20171;-64
2022/07/22 06:51:25;;;;;;;17.20;8.53;;;;;;;24.87;61.44;100511.09;5070851;28;20226;-64
2022/07/22 06:53:50;;;;;;;15.63;9.00;;;;;;;25.05;60.60;100504.03;5071950;28;20635;-64
2022/07/22 06:56:15;;;;;;;14.60;9.00;;;;;;;24.93;61.14;100503.66;5072413;28;20568;-65
2022/07/22 06:58:41;;;;;;;11.13;7.80;;;;;;;24.76;60.75;100504.56;5072241;28;20167;-64
2022/07/22 07:01:06;;;;;;;12.30;9.17;;;;;;;24.61;60.64;100503.78;5086714;28;20171;-64
2022/07/22 07:03:32;;;;;;;17.53;8.23;;;;;;;24.70;60.44;100501.28;5092093;28;20300;-64
2022/07/22 07:05:57;;;;;;;14.50;8.00;;;;;;;25.08;59.65;100500.28;5091489;28;20194;-64
2022/07/22 07:08:23;;;;;;;14.27;8.13;;;;;;;25.25;59.50;100498.53;5090784;28;20182;-64
2022/07/22 07:10:48;;;;;;;14.07;8.30;;;;;;;25.34;58.66;100510.50;5091091;28;20169;-62
2022/07/22 07:13:13;;;;;;;12.90;7.37;;;;;;;25.43;58.26;100499.28;5090466;28;20198;-62
2022/07/22 07:15:39;;;;;;;11.77;7.63;;;;;;;25.33;58.76;100506.75;5089917;28;20186;-64
2022/07/22 07:18:04;;;;;;;13.63;8.33;;;;;;;24.92;60.27;100499.13;5089737;28;20508;-64
2022/07/22 07:20:30;;;;;;;11.87;7.90;;;;;;;24.97;59.97;100502.41;5090199;28;20591;-64
2022/07/22 07:22:55;;;;;;;15.47;8.13;;;;;;;25.21;60.16;100503.50;5089652;28;20221;-64
2022/07/22 07:25:21;;;;;;;9.83;7.60;;;;;;;25.32;59.65;100502.25;5088800;28;20185;-64
2022/07/22 07:27:46;;;;;;;19.20;8.70;;;;;;;25.37;59.20;100501.78;5089260;28;20553;-64
2022/07/22 07:30:12;;;;;;;10.27;7.30;;;;;;;25.43;58.86;100499.28;5088831;28;20178;-64
2022/07/22 07:32:37;;;;;;;11.87;7.93;;;;;;;25.45;59.07;100502.56;5088847;28;20209;-64
2022/07/22 07:35:06;;;;;;;12.23;8.03;;;;;;;25.51;58.76;100501.69;5088221;28;20171;-64
2022/07/22 07:37:31;;;;;;;11.13;7.90;;;;;;;25.50;59.04;100500.06;5087966;28;20726;-64
2022/07/22 07:39:57;;;;;;;10.00;7.53;;;;;;;25.52;59.10;100503.34;5089038;28;20741;-64
2022/07/22 07:42:23;;;;;;;12.93;7.77;;;;;;;25.50;58.39;100505.84;5089641;28;20178;-64
2022/07/22 07:44:48;;;;;;;13.73;7.60;;;;;;;25.58;58.35;100500.84;5090351;28;20231;-64
2022/07/22 07:47:17;;;;;;;10.30;7.57;;;;;;;25.56;58.66;100501.25;5090531;28;20624;-64
2022/07/22 07:49:44;;;;;;;9.70;8.23;;;;;;;25.56;58.65;100498.34;5089338;28;20216;-63
2022/07/22 07:52:09;;;;;;;10.83;7.40;;;;;;;25.58;58.44;100490.06;5088760;28;20459;-63
2022/07/22 07:54:35;;;;;;;10.43;7.70;;;;;;;25.60;58.65;100498.31;5089372;28;20484;-63
2022/07/22 07:57:01;;;;;;;11.60;7.40;;;;;;;25.51;58.82;100490.13;5087715;28;20197;-64
2022/07/22 07:59:26;;;;;;;12.03;9.43;;;;;;;25.16;59.93;100495.28;5088246;28;20432;-65
2022/07/22 08:01:52;;;;;;;15.13;7.43;;;;;;;25.16;60.49;100499.00;5088979;28;20170;-63
2022/07/22 08:04:17;;;;;;;14.80;8.00;;;;;;;25.40;59.93;100495.19;5089024;28;20194;-63
2022/07/22 08:06:42;;;;;;;14.30;7.43;;;;;;;25.52;58.91;100497.56;5088353;28;20689;-63
2022/07/22 08:09:08;;;;;;;12.27;8.53;;;;;;;25.55;59.11;100490.94;5088269;28;20222;-62
2022/07/22 08:11:33;;;;;;;12.30;8.03;;;;;;;25.57;58.80;100484.69;5087471;28;20205;-62
2022/07/22 08:13:59;;;;;;;11.43;8.57;;;;;;;25.51;59.05;100490.13;5088691;28;20167;-62
2022/07/22 08:16:24;;;;;;;17.40;7.53;;;;;;;25.59;58.40;100496.69;5087934;28;20450;-62
2022/07/22 08:18:50;;;;;;;14.00;7.70;;;;;;;25.61;58.81;100488.41;5087119;28;20175;-63
2022/07/22 08:21:15;;;;;;;11.97;8.03;;;;;;;25.61;58.85;100483.44;5086577;28;20627;-62
2022/07/22 08:23:40;;;;;;;10.17;8.33;;;;;;;25.61;58.61;100483.44;5066816;28;20598;-62
2022/07/22 08:26:06;;;;;;;12.07;7.70;;;;;;;25.61;58.39;100477.66;5070555;28;20181;-62
2022/07/22 08:28:31;;;;;;;16.13;8.73;;;;;;;25.64;58.74;100481.78;5088541;28;20193;-62
2022/07/22 08:30:57;;;;;;;11.83;8.60;;;;;;;25.61;58.84;100489.22;5088528;28;20170;-63
2022/07/22 08:33:22;;;;;;;12.97;7.70;;;;;;;25.65;58.88;100475.53;5088679;28;20190;-63
2022/07/22 08:35:48;;;;;;;10.43;8.10;;;;;;;25.68;58.74;100477.59;5088872;28;20182;-63
2022/07/22 08:38:13;;;;;;;9.97;7.70;;;;;;;25.63;58.44;100474.31;5088930;28;20224;-63
2022/07/22 08:40:39;;;;;;;11.10;7.40;;;;;;;25.66;58.44;100471.44;5089692;28;20174;-63
2022/07/22 08:43:04;;;;;;;12.23;8.03;;;;;;;25.69;58.21;100472.66;5090125;28;20662;-63
2022/07/22 08:45:30;;;;;;;11.03;8.80;;;;;;;25.66;58.74;100464.81;5090430;28;20174;-63
2022/07/22 08:47:56;;;;;;;18.57;8.80;;;;;;;25.74;58.36;100451.94;5090088;28;20256;-63
2022/07/22 08:50:21;;;;;;;13.03;7.93;;;;;;;25.75;58.74;100465.16;5089875;28;20188;-63
2022/07/22 08:52:46;;;;;;;11.00;7.70;;;;;;;25.76;58.79;100458.94;5076061;28;20236;-63
2022/07/22 08:55:12;;;;;;;13.33;8.17;;;;;;;25.75;58.62;100445.72;5066747;28;20179;-63
2022/07/22 08:57:37;;;;;;;13.43;8.43;;;;;;;25.79;58.63;100452.28;5068635;28;20178;-63
2022/07/22 09:00:09;;;;;;;10.10;7.50;;;;;;;25.78;58.75;100449.81;5068062;28;20202;-63
2022/07/22 09:02:38;;;;;;;14.07;7.80;;;;;;;25.76;58.48;100444.47;5067961;28;20217;-63
2022/07/22 09:05:05;;;;;;;11.80;7.63;;;;;;;25.80;58.47;100445.25;5068128;28;20414;-64
2022/07/22 09:07:35;;;;;;;13.80;8.10;;;;;;;25.80;58.63;100439.47;5069334;28;20433;-64
2022/07/22 09:10:07;;;;;;;10.53;7.87;;;;;;;25.79;58.95;100439.91;5068483;28;20477;-64
2022/07/22 09:12:34;;;;;;;11.30;8.20;;;;;;;25.76;58.12;100444.47;5069823;28;20463;-64
2022/07/22 09:15:00;;;;;;;12.40;8.03;;;;;;;25.78;58.48;100438.25;5067659;28;20496;-63
2022/07/22 09:17:29;;;;;;;11.53;8.03;;;;;;;25.81;58.52;100440.28;5068093;28;20492;-63
2022/07/22 09:19:58;;;;;;;13.43;7.70;;;;;;;25.78;58.68;100430.41;5076269;28;20260;-63
2022/07/22 09:22:34;;;;;;;12.53;7.50;;;;;;;25.80;59.03;100427.88;5088801;28;20467;-63
2022/07/22 09:25:32;;;;;;;10.20;8.33;;;;;;;25.82;58.54;100425.41;5087444;28;20438;-63
2022/07/22 09:28:06;;;;;;;11.83;8.70;;;;;;;25.85;59.37;100427.44;5087623;28;20428;-63
2022/07/22 09:30:33;;;;;;;13.53;8.67;;;;;;;25.87;59.17;100413.38;5087577;28;20426;-63
2022/07/22 09:32:59;;;;;;;11.27;8.30;;;;;;;25.89;59.02;100410.88;5088019;28;20468;-63
2022/07/22 09:35:24;;;;;;;11.33;7.63;;;;;;;25.90;58.84;100415.41;5086718;28;20416;-63
2022/07/22 09:37:55;;;;;;;11.77;8.20;;;;;;;25.93;59.09;100417.47;5088737;28;20238;-63
2022/07/22 09:40:22;;;;;;;11.37;7.00;;;;;;;25.96;58.74;100413.75;5088976;28;20171;-63
2022/07/22 09:42:51;;;;;;;13.30;8.00;;;;;;;25.95;58.84;100412.06;5089828;28;20416;-63
2022/07/22 09:45:17;;;;;;;13.03;8.83;;;;;;;25.93;59.36;100408.78;5087893;28;20915;-63
2022/07/22 09:47:43;;;;;;;13.43;8.47;;;;;;;25.92;58.56;100406.31;5089331;28;20448;-63
2022/07/22 09:50:19;;;;;;;10.73;8.73;;;;;;;25.95;58.80;100400.50;5089476;28;20639;-63
2022/07/22 09:52:44;;;;;;;11.40;8.00;;;;;;;25.96;58.49;100407.94;5088130;28;20460;-63
2022/07/22 09:55:10;;;;;;;12.70;8.60;;;;;;;25.97;58.66;100403.81;5087834;28;20433;-63
2022/07/22 09:57:35;;;;;;;10.70;8.20;;;;;;;26.02;58.44;100406.22;5087604;28;20506;-63
2022/07/22 10:00:01;;;;;;;9.23;8.23;;;;;;;25.99;58.77;100392.59;5084775;28;20692;-63
2022/07/22 10:02:27;;;;;;;12.87;9.20;;;;;;;26.01;58.79;100400.88;5087104;28;20171;-63
2022/07/22 10:04:53;;;;;;;14.13;8.90;;;;;;;26.04;58.69;100395.03;5088520;28;20509;-63
2022/07/22 10:07:19;;;;;;;13.07;9.03;;;;;;;26.04;59.16;100395.03;5071085;28;20251;-63
2022/07/22 10:09:44;;;;;;;11.07;8.47;;;;;;;26.06;58.81;100388.81;5089499;28;20472;-63
2022/07/22 10:12:10;;;;;;;12.13;8.00;;;;;;;26.06;58.55;100395.44;5072503;28;20201;-63
2022/07/22 10:14:35;;;;;;;13.27;10.07;;;;;;;26.09;58.99;100391.66;5090351;28;20174;-63
2022/07/22 10:17:00;;;;;;;11.33;8.50;;;;;;;26.13;59.19;100397.41;5089448;28;20170;-63
2022/07/22 10:19:26;;;;;;;16.57;9.47;;;;;;;26.12;58.51;100390.81;5090113;28;20544;-63
2022/07/22 10:21:51;;;;;;;10.80;9.00;;;;;;;26.12;58.36;100392.88;5089827;28;20185;-63
2022/07/22 10:24:23;;;;;;;14.50;8.93;;;;;;;26.15;58.41;100389.13;5094648;28;20171;-63
2022/07/22 10:26:53;;;;;;;13.97;8.10;;;;;;;26.17;58.80;100383.72;5094961;28;20593;-63
2022/07/22 10:29:26;;;;;;;18.17;9.20;;;;;;;26.15;58.94;100380.44;5094010;28;20420;-63
2022/07/22 10:32:31;;;;;;;12.37;10.07;;;;;;;26.17;59.13;100372.97;5094142;28;20487;-63
2022/07/22 10:35:09;;;;;;;15.53;9.73;;;;;;;26.17;58.65;100378.78;5093170;28;20537;-63
2022/07/22 10:37:34;;;;;;;15.77;9.13;;;;;;;26.15;58.86;100372.56;5094500;28;20883;-63
2022/07/22 10:40:12;;;;;;;15.10;10.33;;;;;;;26.17;59.17;100372.97;5094640;28;20465;-63
2022/07/22 10:42:56;;;;;;;11.80;9.10;;;;;;;26.20;58.82;100365.50;5094349;28;20174;-63
2022/07/22 10:45:23;;;;;;;12.30;9.30;;;;;;;26.23;58.70;100359.66;5094265;28;20408;-63
2022/07/22 10:47:59;;;;;;;10.53;8.80;;;;;;;26.20;58.27;100353.94;5094177;28;20911;-63
2022/07/22 10:50:40;;;;;;;12.93;10.00;;;;;;;26.23;58.63;100359.66;5093567;28;20412;-63
2022/07/22 10:53:41;;;;;;;12.40;8.97;;;;;;;26.25;58.34;100351.34;5076724;28;20864;-63
2022/07/22 10:56:26;;;;;;;12.40;9.37;;;;;;;26.27;58.23;100351.78;5067827;28;20442;-63
2022/07/22 10:59:12;;;;;;;11.00;8.60;;;;;;;26.28;58.70;100349.69;5071831;28;20410;-63
2022/07/22 11:01:48;;;;;;;10.50;9.40;;;;;;;26.28;58.02;100341.00;5071819;28;20576;-63
2022/07/22 11:04:21;;;;;;;10.50;8.53;;;;;;;26.28;58.02;100338.09;5071953;28;20452;-63
2022/07/22 11:06:50;;;;;;;17.17;10.30;;;;;;;26.33;57.40;100335.56;5073079;28;20832;-63
2022/07/22 11:09:17;;;;;;;17.27;10.10;;;;;;;26.34;58.13;100331.41;5073736;28;20500;-64
2022/07/22 11:11:53;;;;;;;14.07;10.27;;;;;;;26.29;58.58;100328.97;5055239;28;20970;-64
2022/07/22 11:14:30;;;;;;;12.63;9.37;;;;;;;26.34;57.58;100331.41;5055864;28;20789;-64
2022/07/22 11:17:09;;;;;;;13.20;9.10;;;;;;;26.34;57.85;100328.50;5073509;28;20433;-64